createdAt,value
2019-06-01T00:05:16.570Z,23.30
2019-06-01T00:15:20.164Z,23.20
2019-06-01T00:25:23.736Z,23.13
2019-06-01T00:35:27.317Z,23.11
2019-06-01T00:45:30.930Z,23.06
2019-06-01T00:55:34.551Z,23.00
2019-06-01T01:05:38.870Z,22.97
2019-06-01T01:15:42.629Z,22.94
2019-06-01T01:25:46.389Z,22.89
2019-06-01T01:35:49.969Z,22.87
2019-06-01T01:45:54.736Z,22.84
2019-06-01T01:55:59.080Z,22.80
2019-06-01T02:06:03.372Z,22.80
2019-06-01T02:16:07.035Z,22.77
2019-06-01T02:26:10.585Z,22.77
2019-06-01T02:36:14.165Z,22.80
2019-06-01T02:46:17.747Z,22.78
2019-06-01T02:56:21.324Z,22.74
2019-06-01T03:06:24.895Z,22.74
2019-06-01T03:16:29.657Z,22.70
2019-06-01T03:26:33.428Z,22.70
2019-06-01T03:36:36.995Z,22.68
2019-06-01T03:46:40.569Z,22.69
2019-06-01T03:56:44.163Z,22.69
2019-06-01T04:06:47.736Z,22.71
2019-06-01T04:16:51.289Z,22.79
2019-06-01T04:26:54.905Z,22.87
2019-06-01T04:36:58.513Z,22.93
2019-06-01T04:47:02.101Z,22.98
2019-06-01T04:57:06.765Z,23.08
2019-06-01T05:07:11.202Z,23.17
2019-06-01T05:17:16.551Z,23.41
2019-06-01T05:27:20.332Z,23.53
2019-06-01T05:37:23.918Z,23.59
2019-06-01T05:47:27.535Z,23.68
2019-06-01T05:57:31.092Z,23.73
2019-06-01T06:07:34.665Z,23.74
2019-06-01T06:17:38.271Z,23.77
2019-06-01T06:27:41.865Z,23.77
2019-06-01T06:37:45.448Z,23.74
2019-06-01T06:47:49.037Z,23.92
2019-06-01T06:57:52.632Z,24.02
2019-06-01T07:07:56.177Z,24.20
2019-06-01T07:17:59.749Z,24.27
2019-06-01T07:28:03.312Z,24.54
2019-06-01T07:38:06.927Z,24.71
2019-06-01T07:48:10.493Z,24.89
2019-06-01T07:58:14.114Z,25.00
2019-06-01T08:08:17.717Z,25.15
2019-06-01T08:18:21.934Z,25.32
2019-06-01T08:28:26.503Z,25.56
2019-06-01T08:38:31.675Z,25.70
2019-06-01T08:48:35.876Z,25.85
2019-06-01T08:58:42.387Z,25.84
2019-06-01T09:08:48.579Z,25.72
2019-06-01T09:18:55.369Z,25.62
2019-06-01T09:29:03.125Z,25.62
2019-06-01T09:39:11.474Z,25.82
2019-06-01T09:49:17.385Z,25.79
2019-06-01T09:59:22.543Z,25.83
2019-06-01T10:09:29.476Z,25.95
2019-06-01T10:19:35.185Z,25.93
2019-06-01T10:29:43.080Z,25.64
2019-06-01T10:39:51.020Z,25.71
2019-06-01T10:49:55.772Z,25.59
2019-06-01T10:59:59.876Z,25.50
2019-06-01T11:10:04.862Z,25.49
2019-06-01T11:20:08.812Z,25.43
2019-06-01T11:30:12.838Z,25.31
2019-06-01T11:40:16.532Z,25.29
2019-06-01T11:50:20.980Z,25.35
2019-06-01T12:00:24.548Z,25.40
2019-06-01T12:10:28.157Z,25.41
2019-06-01T12:20:31.705Z,25.43
2019-06-01T12:30:35.359Z,25.43
2019-06-01T12:40:39.154Z,25.42
2019-06-01T12:50:46.695Z,25.41
2019-06-01T13:00:48.363Z,25.35
2019-06-01T13:10:52.015Z,25.48
2019-06-01T13:20:56.051Z,25.42
2019-06-01T13:30:59.881Z,25.42
2019-06-01T13:41:06.023Z,25.40
2019-06-01T13:51:11.233Z,25.53
2019-06-01T14:01:15.069Z,25.47
2019-06-01T14:11:18.615Z,25.52
2019-06-01T14:21:22.299Z,25.55
2019-06-01T14:31:25.868Z,25.65
2019-06-01T14:41:29.475Z,25.70
2019-06-01T14:51:33.345Z,25.77
2019-06-01T15:01:37.001Z,25.74
2019-06-01T15:11:40.568Z,25.81
2019-06-01T15:21:44.149Z,25.75
2019-06-01T15:31:47.759Z,25.86
2019-06-01T15:41:52.890Z,25.86
2019-06-01T15:51:57.738Z,26.09
2019-06-01T16:02:01.472Z,25.96
2019-06-01T16:12:05.790Z,25.89
2019-06-01T16:22:09.329Z,25.88
2019-06-01T16:32:12.916Z,25.85
2019-06-01T16:42:16.508Z,25.86
2019-06-01T16:52:20.097Z,25.83
2019-06-01T17:02:23.700Z,25.84
2019-06-01T17:12:27.295Z,25.82
2019-06-01T17:22:30.910Z,25.80
2019-06-01T17:32:34.505Z,25.79
2019-06-01T17:42:38.602Z,25.76
2019-06-01T17:52:42.477Z,25.76
2019-06-01T18:02:46.659Z,25.75
2019-06-01T18:12:50.711Z,25.71
2019-06-01T18:22:56.608Z,25.71
2019-06-01T18:33:00.948Z,25.72
2019-06-01T18:43:12.071Z,25.73
2019-06-01T18:53:17.024Z,25.68
2019-06-01T19:03:21.072Z,25.67
2019-06-01T19:13:25.889Z,25.62
2019-06-01T19:23:30.173Z,25.58
2019-06-01T19:33:34.369Z,25.51
2019-06-01T19:43:38.758Z,25.43
2019-06-01T19:53:42.983Z,25.29
2019-06-01T20:03:47.079Z,25.23
2019-06-01T20:13:51.435Z,25.20
2019-06-01T20:23:56.175Z,25.11
2019-06-01T20:34:00.775Z,25.08
2019-06-01T20:44:06.184Z,25.01
2019-06-01T20:54:12.899Z,24.94
2019-06-01T21:04:18.035Z,24.84
2019-06-01T21:14:21.759Z,24.80
2019-06-01T21:24:25.500Z,24.73
2019-06-01T21:34:29.055Z,24.64
2019-06-01T21:44:32.693Z,24.60
2019-06-01T21:54:36.337Z,24.65
2019-06-01T22:04:39.919Z,24.58
2019-06-01T22:14:43.869Z,24.49
2019-06-01T22:24:47.687Z,24.41
2019-06-01T22:34:51.379Z,24.36
2019-06-01T22:44:55.348Z,24.29
2019-06-01T22:54:58.976Z,24.20
2019-06-01T23:05:02.632Z,24.13
2019-06-01T23:15:07.325Z,24.07
2019-06-01T23:25:10.915Z,24.00
2019-06-01T23:35:14.540Z,23.93
2019-06-01T23:45:18.089Z,23.88
2019-06-01T23:55:21.667Z,23.79
